createdAt,value
2022-09-04T00:00:42.931Z,1013.48
2022-09-04T00:01:45.090Z,1013.50
2022-09-04T00:02:42.904Z,1013.59
2022-09-04T00:03:43.032Z,1013.59
2022-09-04T00:04:43.053Z,1013.55
2022-09-04T00:05:42.919Z,1013.58
2022-09-04T00:06:42.877Z,1013.59
2022-09-04T00:07:42.844Z,1013.51
2022-09-04T00:08:42.832Z,1013.52
2022-09-04T00:09:42.812Z,1013.53
2022-09-04T00:10:42.804Z,1013.53
2022-09-04T00:11:42.804Z,1013.51
2022-09-04T00:12:42.782Z,1013.55
2022-09-04T00:13:42.794Z,1013.50
2022-09-04T00:14:42.752Z,1013.55
2022-09-04T00:15:49.739Z,1013.49
2022-09-04T00:16:42.963Z,1013.54
2022-09-04T00:17:42.697Z,1013.53
2022-09-04T00:18:42.687Z,1013.50
2022-09-04T00:19:42.675Z,1013.53
2022-09-04T00:20:42.681Z,1013.46
2022-09-04T00:21:42.657Z,1013.51
2022-09-04T00:22:42.660Z,1013.46
2022-09-04T00:23:42.634Z,1013.55
2022-09-04T00:24:42.605Z,1013.53
2022-09-04T00:25:42.588Z,1013.53
2022-09-04T00:26:42.586Z,1013.51
2022-09-04T00:27:42.598Z,1013.51
2022-09-04T00:28:42.560Z,1013.53
2022-09-04T00:29:42.538Z,1013.54
2022-09-04T00:30:42.605Z,1013.56
2022-09-04T00:31:42.518Z,1013.49
2022-09-04T00:32:42.510Z,1013.53
2022-09-04T00:33:42.500Z,1013.53
2022-09-04T00:34:42.479Z,1013.59
2022-09-04T00:35:42.477Z,1013.53
2022-09-04T00:36:45.797Z,1013.49
2022-09-04T00:37:43.438Z,1013.48
2022-09-04T00:38:42.438Z,1013.53
2022-09-04T00:39:42.466Z,1013.50
2022-09-04T00:40:42.398Z,1013.50
2022-09-04T00:41:42.388Z,1013.56
2022-09-04T00:42:42.368Z,1013.53
2022-09-04T00:43:42.367Z,1013.60
2022-09-04T00:44:42.352Z,1013.59
2022-09-04T00:45:42.403Z,1013.64
2022-09-04T00:46:42.342Z,1013.62
2022-09-04T00:47:42.321Z,1013.60
2022-09-04T00:48:42.302Z,1013.65
2022-09-04T00:49:42.280Z,1013.64
2022-09-04T00:50:42.278Z,1013.60
2022-09-04T00:51:42.260Z,1013.65
2022-09-04T00:52:42.281Z,1013.66
2022-09-04T00:53:42.228Z,1013.74
2022-09-04T00:54:42.218Z,1013.71
2022-09-04T00:55:42.209Z,1013.71
2022-09-04T00:56:42.204Z,1013.69
2022-09-04T00:57:42.189Z,1013.72
2022-09-04T00:58:42.178Z,1013.69
2022-09-04T00:59:42.150Z,1013.68
2022-09-04T01:00:42.219Z,1013.71
2022-09-04T01:01:42.193Z,1013.67
2022-09-04T01:02:42.123Z,1013.66
2022-09-04T01:03:42.112Z,1013.69
2022-09-04T01:04:42.091Z,1013.69
2022-09-04T01:05:42.089Z,1013.68
2022-09-04T01:06:42.094Z,1013.60
2022-09-04T01:07:42.051Z,1013.74
2022-09-04T01:08:42.039Z,1013.68
2022-09-04T01:09:42.011Z,1013.72
2022-09-04T01:10:42.010Z,1013.70
2022-09-04T01:11:41.991Z,1013.70
2022-09-04T01:12:41.980Z,1013.79
2022-09-04T01:13:41.984Z,1013.77
2022-09-04T01:14:41.962Z,1013.72
2022-09-04T01:15:41.960Z,1013.76
2022-09-04T01:16:41.979Z,1013.78
2022-09-04T01:17:41.923Z,1013.84
2022-09-04T01:18:41.924Z,1013.85
2022-09-04T01:19:41.897Z,1013.76
2022-09-04T01:20:41.891Z,1013.77
2022-09-04T01:21:41.891Z,1013.86
2022-09-04T01:22:41.862Z,1013.84
2022-09-04T01:23:41.843Z,1013.87
2022-09-04T01:24:41.862Z,1013.85
2022-09-04T01:25:41.802Z,1013.84
2022-09-04T01:26:41.810Z,1013.82
2022-09-04T01:27:41.792Z,1013.86
2022-09-04T01:28:41.792Z,1013.85
2022-09-04T01:29:41.764Z,1013.81
2022-09-04T01:30:41.762Z,1013.86
2022-09-04T01:31:41.787Z,1013.84
2022-09-04T01:32:41.714Z,1013.81
2022-09-04T01:33:41.724Z,1013.80
2022-09-04T01:34:41.692Z,1013.79
2022-09-04T01:35:41.683Z,1013.77
2022-09-04T01:36:41.675Z,1013.77
2022-09-04T01:37:41.654Z,1013.77
2022-09-04T01:38:41.653Z,1013.80
2022-09-04T01:39:41.696Z,1013.84
2022-09-04T01:40:41.626Z,1013.83
2022-09-04T01:41:41.626Z,1013.91
2022-09-04T01:42:41.612Z,1013.88
2022-09-04T01:43:41.586Z,1013.88
2022-09-04T01:44:41.595Z,1013.88
2022-09-04T01:45:41.591Z,1013.89
2022-09-04T01:46:41.555Z,1013.89
2022-09-04T01:47:41.536Z,1013.87
2022-09-04T01:48:41.514Z,1013.92
2022-09-04T01:49:41.496Z,1013.89
2022-09-04T01:50:41.486Z,1013.87
2022-09-04T01:51:41.487Z,1013.83
2022-09-04T01:52:41.484Z,1013.80
2022-09-04T01:53:41.446Z,1013.80
2022-09-04T01:54:41.444Z,1013.72
2022-09-04T01:55:41.418Z,1013.82
2022-09-04T01:56:41.416Z,1013.77
2022-09-04T01:57:41.418Z,1013.81
2022-09-04T01:58:41.417Z,1013.76
2022-09-04T01:59:41.378Z,1013.79
2022-09-04T02:00:41.464Z,1013.82
2022-09-04T02:01:41.455Z,1013.81
2022-09-04T02:02:41.340Z,1013.79
2022-09-04T02:03:41.338Z,1013.79
2022-09-04T02:04:41.306Z,1013.85
2022-09-04T02:05:41.297Z,1013.85
2022-09-04T02:06:41.289Z,1013.82
2022-09-04T02:07:41.346Z,1013.84
2022-09-04T02:08:41.268Z,1013.83
2022-09-04T02:09:41.237Z,1013.82
2022-09-04T02:10:41.226Z,1013.84
2022-09-04T02:11:41.266Z,1013.84
2022-09-04T02:12:41.207Z,1013.78
2022-09-04T02:13:41.209Z,1013.81
2022-09-04T02:14:41.186Z,1013.80
2022-09-04T02:15:41.166Z,1013.78
2022-09-04T02:16:41.219Z,1013.80
2022-09-04T02:17:41.147Z,1013.79
2022-09-04T02:18:41.175Z,1013.79
2022-09-04T02:19:41.129Z,1013.80
2022-09-04T02:20:41.119Z,1013.80
2022-09-04T02:21:41.087Z,1013.77
2022-09-04T02:22:41.078Z,1013.81
2022-09-04T02:23:41.059Z,1013.81
2022-09-04T02:24:41.048Z,1013.76
2022-09-04T02:25:41.048Z,1013.75
2022-09-04T02:26:41.028Z,1013.80
2022-09-04T02:27:41.008Z,1013.84
2022-09-04T02:28:41.007Z,1013.81
2022-09-04T02:29:40.981Z,1013.78
2022-09-04T02:30:40.970Z,1013.86
2022-09-04T02:31:41.001Z,1013.85
2022-09-04T02:32:40.939Z,1013.76
2022-09-04T02:33:40.926Z,1013.81
2022-09-04T02:34:40.918Z,1013.77
2022-09-04T02:35:40.900Z,1013.84
2022-09-04T02:36:40.912Z,1013.85
2022-09-04T02:37:40.891Z,1013.83
2022-09-04T02:38:40.879Z,1013.84
2022-09-04T02:39:40.901Z,1013.81
2022-09-04T02:40:40.853Z,1013.79
2022-09-04T02:41:40.842Z,1013.84
2022-09-04T02:42:40.822Z,1013.80
2022-09-04T02:43:40.810Z,1013.79
2022-09-04T02:44:40.787Z,1013.81
2022-09-04T02:45:40.769Z,1013.82
2022-09-04T02:46:43.267Z,1013.82
2022-09-04T02:47:40.753Z,1013.81
2022-09-04T02:48:40.750Z,1013.86
2022-09-04T02:49:40.721Z,1013.83
2022-09-04T02:50:40.710Z,1013.81
2022-09-04T02:51:40.740Z,1013.85
2022-09-04T02:52:40.704Z,1013.85
2022-09-04T02:53:40.682Z,1013.80
2022-09-04T02:54:40.682Z,1013.86
2022-09-04T02:55:40.653Z,1013.84
2022-09-04T02:56:40.652Z,1013.82
2022-09-04T02:57:40.644Z,1013.85
2022-09-04T02:58:40.623Z,1013.83
2022-09-04T02:59:40.603Z,1013.86
2022-09-04T03:00:40.617Z,1013.86
2022-09-04T03:01:40.595Z,1013.83
2022-09-04T03:02:40.551Z,1013.77
2022-09-04T03:03:40.552Z,1013.83
2022-09-04T03:04:40.532Z,1013.87
2022-09-04T03:05:40.523Z,1013.83
2022-09-04T03:06:40.513Z,1013.85
2022-09-04T03:07:40.523Z,1013.85
2022-09-04T03:08:40.494Z,1013.81
2022-09-04T03:09:40.465Z,1013.84
2022-09-04T03:10:40.455Z,1013.84
2022-09-04T03:11:40.444Z,1013.90
2022-09-04T03:12:40.435Z,1013.84
2022-09-04T03:13:40.442Z,1013.86
2022-09-04T03:14:40.446Z,1013.86
2022-09-04T03:15:40.396Z,1013.87
2022-09-04T03:16:40.447Z,1013.85
2022-09-04T03:17:40.364Z,1013.90
2022-09-04T03:18:40.344Z,1013.89
2022-09-04T03:19:40.334Z,1013.89
2022-09-04T03:20:40.333Z,1013.91
2022-09-04T03:21:40.312Z,1013.90
2022-09-04T03:22:40.293Z,1013.89
2022-09-04T03:23:40.284Z,1013.86
2022-09-04T03:24:40.325Z,1013.88
2022-09-04T03:25:40.275Z,1013.89
2022-09-04T03:26:40.256Z,1013.86
2022-09-04T03:27:40.247Z,1013.83
2022-09-04T03:28:40.225Z,1013.88
2022-09-04T03:29:40.216Z,1013.84
2022-09-04T03:30:40.216Z,1013.86
2022-09-04T03:31:40.261Z,1013.86
2022-09-04T03:32:40.166Z,1013.88
2022-09-04T03:33:40.225Z,1013.92
2022-09-04T03:34:40.145Z,1013.85
2022-09-04T03:35:40.170Z,1013.95
2022-09-04T03:36:40.135Z,1013.89
2022-09-04T03:37:40.114Z,1013.87
2022-09-04T03:38:40.095Z,1013.89
2022-09-04T03:39:40.184Z,1013.96
2022-09-04T03:40:40.075Z,1013.94
2022-09-04T03:41:40.097Z,1013.92
2022-09-04T03:42:40.045Z,1013.96
2022-09-04T03:43:40.037Z,1013.97
2022-09-04T03:44:40.019Z,1013.96
2022-09-04T03:45:40.008Z,1013.96
2022-09-04T03:46:40.047Z,1014.00
2022-09-04T03:47:39.996Z,1014.03
2022-09-04T03:48:39.967Z,1014.06
2022-09-04T03:49:39.957Z,1013.99
2022-09-04T03:50:39.936Z,1014.06
2022-09-04T03:51:39.946Z,1014.03
2022-09-04T03:52:39.916Z,1014.04
2022-09-04T03:53:39.905Z,1014.03
2022-09-04T03:54:39.886Z,1014.02
2022-09-04T03:55:39.877Z,1014.02
2022-09-04T03:56:39.857Z,1014.03
2022-09-04T03:57:39.867Z,1013.99
2022-09-04T03:58:39.878Z,1013.97
2022-09-04T03:59:39.843Z,1013.96
2022-09-04T04:00:39.850Z,1013.99
2022-09-04T04:01:39.827Z,1013.96
2022-09-04T04:02:39.835Z,1013.98
2022-09-04T04:03:39.819Z,1013.91
2022-09-04T04:04:39.758Z,1013.97
2022-09-04T04:05:39.763Z,1013.99
2022-09-04T04:06:39.728Z,1014.02
2022-09-04T04:07:39.729Z,1014.11
2022-09-04T04:08:39.710Z,1014.12
2022-09-04T04:09:39.718Z,1014.08
2022-09-04T04:10:39.680Z,1014.15
2022-09-04T04:11:43.321Z,1014.14
2022-09-04T04:12:39.649Z,1014.14
2022-09-04T04:13:39.645Z,1014.13
2022-09-04T04:14:39.628Z,1014.18
2022-09-04T04:15:39.630Z,1014.15
2022-09-04T04:16:39.669Z,1014.18
2022-09-04T04:17:39.589Z,1014.21
2022-09-04T04:18:39.586Z,1014.19
2022-09-04T04:19:39.560Z,1014.17
2022-09-04T04:20:39.556Z,1014.20
2022-09-04T04:21:39.550Z,1014.25
2022-09-04T04:22:39.520Z,1014.24
2022-09-04T04:23:39.509Z,1014.21
2022-09-04T04:24:39.490Z,1014.24
2022-09-04T04:25:39.500Z,1014.23
2022-09-04T04:26:39.470Z,1014.21
2022-09-04T04:27:39.463Z,1014.24
2022-09-04T04:28:39.441Z,1014.18
2022-09-04T04:29:39.428Z,1014.24
2022-09-04T04:30:39.411Z,1014.25
2022-09-04T04:31:39.522Z,1014.25
2022-09-04T04:32:39.399Z,1014.25
2022-09-04T04:33:39.368Z,1014.28
2022-09-04T04:34:39.352Z,1014.27
2022-09-04T04:35:39.389Z,1014.21
2022-09-04T04:36:39.330Z,1014.22
2022-09-04T04:37:39.358Z,1014.25
2022-09-04T04:38:39.323Z,1014.25
2022-09-04T04:39:39.354Z,1014.21
2022-09-04T04:40:39.294Z,1014.23
2022-09-04T04:41:39.310Z,1014.26
2022-09-04T04:42:39.261Z,1014.29
2022-09-04T04:43:39.261Z,1014.34
2022-09-04T04:44:39.258Z,1014.24
2022-09-04T04:45:39.209Z,1014.32
2022-09-04T04:46:39.344Z,1014.35
2022-09-04T04:47:39.190Z,1014.30
2022-09-04T04:48:39.170Z,1014.34
2022-09-04T04:49:39.192Z,1014.31
2022-09-04T04:50:39.140Z,1014.33
2022-09-04T04:51:39.138Z,1014.31
2022-09-04T04:52:39.120Z,1014.35
2022-09-04T04:53:39.124Z,1014.36
2022-09-04T04:54:39.127Z,1014.40
2022-09-04T04:55:39.091Z,1014.43
2022-09-04T04:56:39.072Z,1014.41
2022-09-04T04:57:39.063Z,1014.44
2022-09-04T04:58:39.082Z,1014.46
2022-09-04T04:59:39.039Z,1014.47
2022-09-04T05:00:39.045Z,1014.51
2022-09-04T05:01:39.093Z,1014.49
2022-09-04T05:02:39.132Z,1014.53
2022-09-04T05:03:38.971Z,1014.57
2022-09-04T05:04:38.961Z,1014.54
2022-09-04T05:05:38.963Z,1014.59
2022-09-04T05:06:38.950Z,1014.64
2022-09-04T05:07:38.932Z,1014.65
2022-09-04T05:08:38.913Z,1014.65
2022-09-04T05:09:38.902Z,1014.70
2022-09-04T05:10:38.883Z,1014.70
2022-09-04T05:11:38.891Z,1014.71
2022-09-04T05:12:38.861Z,1014.72
2022-09-04T05:13:38.843Z,1014.75
2022-09-04T05:14:38.851Z,1014.71
2022-09-04T05:15:58.259Z,1014.76
2022-09-04T05:16:39.927Z,1014.74
2022-09-04T05:17:38.802Z,1014.73
2022-09-04T05:18:38.794Z,1014.72
2022-09-04T05:19:38.774Z,1014.73
2022-09-04T05:20:38.754Z,1014.75
2022-09-04T05:21:38.761Z,1014.79
2022-09-04T05:22:38.742Z,1014.78
2022-09-04T05:23:38.723Z,1014.83
2022-09-04T05:24:38.705Z,1014.88
2022-09-04T05:25:38.691Z,1014.92
2022-09-04T05:26:38.672Z,1014.93
2022-09-04T05:27:38.673Z,1014.93
2022-09-04T05:28:38.656Z,1014.92
2022-09-04T05:29:38.649Z,1014.94
2022-09-04T05:30:38.623Z,1014.95
2022-09-04T05:31:38.770Z,1014.95
2022-09-04T05:32:38.604Z,1014.99
2022-09-04T05:33:38.585Z,1015.05
2022-09-04T05:34:38.573Z,1015.01
2022-09-04T05:35:38.563Z,1015.05
2022-09-04T05:36:38.549Z,1015.10
2022-09-04T05:37:38.575Z,1015.09
2022-09-04T05:38:38.515Z,1015.15
2022-09-04T05:39:38.573Z,1015.18
2022-09-04T05:40:38.509Z,1015.18
2022-09-04T05:41:38.504Z,1015.19
2022-09-04T05:42:38.464Z,1015.20
2022-09-04T05:43:38.474Z,1015.23
2022-09-04T05:44:38.434Z,1015.24
2022-09-04T05:45:38.435Z,1015.25
2022-09-04T05:46:38.464Z,1015.25
2022-09-04T05:47:38.402Z,1015.27
2022-09-04T05:48:38.414Z,1015.29
2022-09-04T05:49:38.387Z,1015.25
2022-09-04T05:50:38.417Z,1015.25
2022-09-04T05:51:38.358Z,1015.26
2022-09-04T05:52:38.348Z,1015.25
2022-09-04T05:53:38.347Z,1015.34
2022-09-04T05:54:38.326Z,1015.30
2022-09-04T05:55:38.315Z,1015.36
2022-09-04T05:56:38.295Z,1015.38
2022-09-04T05:57:38.286Z,1015.41
2022-09-04T05:58:38.255Z,1015.40
2022-09-04T05:59:38.296Z,1015.43
2022-09-04T06:00:39.235Z,1015.42
2022-09-04T06:01:38.270Z,1015.43
2022-09-04T06:02:38.245Z,1015.43
2022-09-04T06:03:38.199Z,1015.44
2022-09-04T06:04:38.176Z,1015.43
2022-09-04T06:05:38.218Z,1015.42
2022-09-04T06:06:38.158Z,1015.49
2022-09-04T06:07:38.164Z,1015.49
2022-09-04T06:08:38.137Z,1015.45
2022-09-04T06:09:38.118Z,1015.46
2022-09-04T06:10:38.114Z,1015.42
2022-09-04T06:11:38.116Z,1015.45
2022-09-04T06:12:38.087Z,1015.53
2022-09-04T06:13:38.069Z,1015.49
2022-09-04T06:14:38.058Z,1015.55
2022-09-04T06:15:45.142Z,1015.48
2022-09-04T06:16:38.102Z,1015.54
2022-09-04T06:17:38.025Z,1015.52
2022-09-04T06:18:38.012Z,1015.49
2022-09-04T06:19:37.993Z,1015.43
2022-09-04T06:20:37.982Z,1015.46
2022-09-04T06:21:37.971Z,1015.49
2022-09-04T06:22:37.963Z,1015.49
2022-09-04T06:23:37.976Z,1015.46
2022-09-04T06:24:37.935Z,1015.52
2022-09-04T06:25:37.913Z,1015.49
2022-09-04T06:26:37.913Z,1015.46
2022-09-04T06:27:37.885Z,1015.49
2022-09-04T06:28:37.878Z,1015.50
2022-09-04T06:29:37.866Z,1015.51
2022-09-04T06:30:37.857Z,1015.56
2022-09-04T06:31:37.878Z,1015.54
2022-09-04T06:32:37.837Z,1015.58
2022-09-04T06:33:37.832Z,1015.52
2022-09-04T06:34:37.805Z,1015.61
2022-09-04T06:35:37.785Z,1015.56
2022-09-04T06:36:37.811Z,1015.56
2022-09-04T06:37:37.765Z,1015.59
2022-09-04T06:38:37.842Z,1015.55
2022-09-04T06:39:37.770Z,1015.52
2022-09-04T06:40:37.714Z,1015.51
2022-09-04T06:41:37.705Z,1015.52
2022-09-04T06:42:37.696Z,1015.53
2022-09-04T06:43:37.963Z,1015.52
2022-09-04T06:44:37.687Z,1015.54
2022-09-04T06:45:37.663Z,1015.52
2022-09-04T06:46:37.719Z,1015.56
2022-09-04T06:47:37.634Z,1015.57
2022-09-04T06:48:37.630Z,1015.55
2022-09-04T06:49:37.637Z,1015.57
2022-09-04T06:50:37.634Z,1015.59
2022-09-04T06:51:37.584Z,1015.55
2022-09-04T06:52:37.576Z,1015.57
2022-09-04T06:53:37.546Z,1015.59
2022-09-04T06:54:37.537Z,1015.58
2022-09-04T06:55:37.536Z,1015.63
2022-09-04T06:56:37.527Z,1015.61
2022-09-04T06:57:37.487Z,1015.62
2022-09-04T06:58:37.476Z,1015.69
2022-09-04T06:59:37.487Z,1015.69
2022-09-04T07:00:37.466Z,1015.77
2022-09-04T07:01:37.567Z,1015.81
2022-09-04T07:02:37.606Z,1015.80
2022-09-04T07:03:37.429Z,1015.82
2022-09-04T07:04:37.426Z,1015.81
2022-09-04T07:05:37.401Z,1015.78
2022-09-04T07:06:37.389Z,1015.81
2022-09-04T07:07:37.370Z,1015.71
2022-09-04T07:08:37.368Z,1015.75
2022-09-04T07:09:37.338Z,1015.75
2022-09-04T07:10:37.328Z,1015.68
2022-09-04T07:11:37.321Z,1015.69
2022-09-04T07:12:37.310Z,1015.69
2022-09-04T07:13:37.290Z,1015.70
2022-09-04T07:14:37.298Z,1015.73
2022-09-04T07:15:37.306Z,1015.75
2022-09-04T07:16:37.259Z,1015.75
2022-09-04T07:17:37.238Z,1015.76
2022-09-04T07:18:37.237Z,1015.74
2022-09-04T07:19:37.249Z,1015.73
2022-09-04T07:20:37.209Z,1015.79
2022-09-04T07:21:37.250Z,1015.76
2022-09-04T07:22:37.179Z,1015.79
2022-09-04T07:23:37.220Z,1015.84
2022-09-04T07:24:37.169Z,1015.86
2022-09-04T07:25:37.141Z,1015.87
2022-09-04T07:26:37.131Z,1015.83
2022-09-04T07:27:37.112Z,1015.88
2022-09-04T07:28:37.101Z,1015.77
2022-09-04T07:29:37.081Z,1015.83
2022-09-04T07:30:37.264Z,1015.87
2022-09-04T07:31:37.080Z,1015.84
2022-09-04T07:32:37.060Z,1015.86
2022-09-04T07:33:37.041Z,1015.84
2022-09-04T07:34:37.024Z,1015.89
2022-09-04T07:35:37.011Z,1015.90
2022-09-04T07:36:37.009Z,1015.91
2022-09-04T07:37:36.987Z,1015.91
2022-09-04T07:38:36.976Z,1015.99
2022-09-04T07:39:37.003Z,1015.91
2022-09-04T07:40:38.252Z,1015.97
2022-09-04T07:41:36.932Z,1015.93
2022-09-04T07:42:36.969Z,1015.89
2022-09-04T07:43:36.912Z,1016.00
2022-09-04T07:44:36.896Z,1015.94
2022-09-04T07:45:36.897Z,1015.95
2022-09-04T07:46:36.981Z,1015.90
2022-09-04T07:47:36.843Z,1015.91
2022-09-04T07:48:36.843Z,1015.86
2022-09-04T07:49:36.832Z,1015.94
2022-09-04T07:50:36.803Z,1015.92
2022-09-04T07:51:36.803Z,1015.92
2022-09-04T07:52:36.783Z,1016.00
2022-09-04T07:53:36.831Z,1016.00
2022-09-04T07:54:36.765Z,1016.02
2022-09-04T07:55:36.765Z,1016.01
2022-09-04T07:56:36.739Z,1016.02
2022-09-04T07:57:36.747Z,1016.00
2022-09-04T07:58:36.715Z,1016.06
2022-09-04T07:59:36.713Z,1016.04
2022-09-04T08:00:36.715Z,1016.02
2022-09-04T08:01:40.189Z,1016.00
2022-09-04T08:02:36.685Z,1016.02
2022-09-04T08:03:36.634Z,1016.04
2022-09-04T08:04:37.685Z,1016.06
2022-09-04T08:05:36.606Z,1016.10
2022-09-04T08:06:36.605Z,1016.09
2022-09-04T08:07:36.586Z,1016.09
2022-09-04T08:08:36.586Z,1016.09
2022-09-04T08:09:36.566Z,1016.11
2022-09-04T08:10:36.555Z,1016.13
2022-09-04T08:11:36.567Z,1016.08
2022-09-04T08:12:36.536Z,1016.14
2022-09-04T08:13:36.518Z,1016.15
2022-09-04T08:14:36.515Z,1016.15
2022-09-04T08:15:40.888Z,1016.14
2022-09-04T08:16:37.496Z,1016.18
2022-09-04T08:17:36.469Z,1016.16
2022-09-04T08:18:36.467Z,1016.20
2022-09-04T08:19:36.449Z,1016.22
2022-09-04T08:20:36.450Z,1016.23
2022-09-04T08:21:36.448Z,1016.29
2022-09-04T08:22:36.410Z,1016.25
2022-09-04T08:23:36.386Z,1016.25
2022-09-04T08:24:36.388Z,1016.27
2022-09-04T08:25:36.369Z,1016.26
2022-09-04T08:26:36.350Z,1016.25
2022-09-04T08:27:36.356Z,1016.24
2022-09-04T08:28:37.360Z,1016.27
2022-09-04T08:29:36.349Z,1016.23
2022-09-04T08:30:36.301Z,1016.24
2022-09-04T08:31:36.277Z,1016.22
2022-09-04T08:32:38.069Z,1016.21
2022-09-04T08:33:36.288Z,1016.21
2022-09-04T08:34:36.258Z,1016.21
2022-09-04T08:35:36.345Z,1016.22
2022-09-04T08:36:36.239Z,1016.16
2022-09-04T08:37:36.254Z,1016.16
2022-09-04T08:38:36.205Z,1016.07
2022-09-04T08:39:36.254Z,1016.11
2022-09-04T08:40:36.172Z,1016.14
2022-09-04T08:41:36.151Z,1016.10
2022-09-04T08:42:36.150Z,1016.16
2022-09-04T08:43:36.120Z,1016.16
2022-09-04T08:44:36.160Z,1016.22
2022-09-04T08:45:42.171Z,1016.21
2022-09-04T08:46:37.139Z,1016.20
2022-09-04T08:47:36.067Z,1016.17
2022-09-04T08:48:36.061Z,1016.16
2022-09-04T08:49:36.074Z,1016.17
2022-09-04T08:50:36.049Z,1016.20
2022-09-04T08:51:36.024Z,1016.19
2022-09-04T08:52:36.014Z,1016.19
2022-09-04T08:53:35.994Z,1016.23
2022-09-04T08:54:35.995Z,1016.22
2022-09-04T08:55:36.003Z,1016.20
2022-09-04T08:56:35.973Z,1016.22
2022-09-04T08:57:35.943Z,1016.20
2022-09-04T08:58:35.933Z,1016.18
2022-09-04T08:59:35.923Z,1016.15
2022-09-04T09:00:35.913Z,1016.17
2022-09-04T09:01:35.980Z,1016.18
2022-09-04T09:02:36.215Z,1016.19
2022-09-04T09:03:35.883Z,1016.18
2022-09-04T09:04:35.906Z,1016.17
2022-09-04T09:05:36.592Z,1016.21
2022-09-04T09:06:35.824Z,1016.20
2022-09-04T09:07:35.825Z,1016.19
2022-09-04T09:08:35.806Z,1016.23
2022-09-04T09:09:35.815Z,1016.23
2022-09-04T09:10:35.815Z,1016.18
2022-09-04T09:11:35.785Z,1016.21
2022-09-04T09:12:40.734Z,1016.21
2022-09-04T09:13:36.756Z,1016.17
2022-09-04T09:14:35.727Z,1016.20
2022-09-04T09:15:35.746Z,1016.17
2022-09-04T09:16:35.760Z,1016.22
2022-09-04T09:17:35.704Z,1016.09
2022-09-04T09:18:35.674Z,1016.13
2022-09-04T09:19:35.686Z,1016.16
2022-09-04T09:20:35.657Z,1016.15
2022-09-04T09:21:35.646Z,1016.22
2022-09-04T09:22:35.663Z,1016.12
2022-09-04T09:23:35.599Z,1016.15
2022-09-04T09:24:35.596Z,1016.16
2022-09-04T09:25:35.606Z,1016.14
2022-09-04T09:26:35.613Z,1016.15
2022-09-04T09:27:35.564Z,1016.11
2022-09-04T09:28:35.547Z,1016.14
2022-09-04T09:29:35.528Z,1016.13
2022-09-04T09:30:35.565Z,1016.11
2022-09-04T09:31:35.511Z,1016.09
2022-09-04T09:32:35.548Z,1016.07
2022-09-04T09:33:35.490Z,1016.07
2022-09-04T09:34:35.485Z,1016.09
2022-09-04T09:35:35.471Z,1016.04
2022-09-04T09:36:35.470Z,1016.02
2022-09-04T09:37:35.440Z,1016.00
2022-09-04T09:38:35.467Z,1016.02
2022-09-04T09:39:35.480Z,1016.06
2022-09-04T09:40:35.422Z,1016.05
2022-09-04T09:41:35.389Z,1016.03
2022-09-04T09:42:35.369Z,1016.00
2022-09-04T09:43:35.368Z,1016.05
2022-09-04T09:44:35.350Z,1016.04
2022-09-04T09:45:35.393Z,1016.00
2022-09-04T09:46:35.350Z,1016.01
2022-09-04T09:47:35.330Z,1015.99
2022-09-04T09:48:35.301Z,1016.03
2022-09-04T09:49:35.382Z,1016.06
2022-09-04T09:50:35.302Z,1016.06
2022-09-04T09:51:35.252Z,1015.98
2022-09-04T09:52:35.385Z,1015.94
2022-09-04T09:53:35.233Z,1016.00
2022-09-04T09:54:35.242Z,1016.02
2022-09-04T09:55:35.211Z,1015.99
2022-09-04T09:56:35.181Z,1016.05
2022-09-04T09:57:35.183Z,1016.02
2022-09-04T09:58:35.224Z,1016.00
2022-09-04T09:59:35.161Z,1015.98
2022-09-04T10:00:35.139Z,1015.99
2022-09-04T10:01:35.163Z,1015.96
2022-09-04T10:02:35.196Z,1015.93
2022-09-04T10:03:35.125Z,1016.00
2022-09-04T10:04:35.094Z,1015.92
2022-09-04T10:05:35.074Z,1015.94
2022-09-04T10:06:35.054Z,1015.93
2022-09-04T10:07:35.052Z,1015.97
2022-09-04T10:08:36.000Z,1015.92
2022-09-04T10:09:35.049Z,1015.93
2022-09-04T10:10:35.008Z,1016.00
2022-09-04T10:11:35.034Z,1015.95
2022-09-04T10:12:34.984Z,1015.93
2022-09-04T10:13:35.025Z,1015.95
2022-09-04T10:14:34.984Z,1015.97
2022-09-04T10:15:35.067Z,1016.02
2022-09-04T10:16:34.965Z,1015.99
2022-09-04T10:17:34.925Z,1016.00
2022-09-04T10:18:34.904Z,1015.94
2022-09-04T10:19:38.969Z,1015.95
2022-09-04T10:20:34.927Z,1015.95
2022-09-04T10:21:34.874Z,1015.96
2022-09-04T10:22:34.878Z,1015.96
2022-09-04T10:23:34.912Z,1015.92
2022-09-04T10:24:34.837Z,1015.99
2022-09-04T10:25:34.866Z,1016.00
2022-09-04T10:26:34.829Z,1016.02
2022-09-04T10:27:34.801Z,1015.95
2022-09-04T10:28:34.777Z,1016.02
2022-09-04T10:29:34.785Z,1015.97
2022-09-04T10:30:34.847Z,1015.97
2022-09-04T10:31:34.757Z,1016.00
2022-09-04T10:32:34.745Z,1015.96
2022-09-04T10:33:34.707Z,1015.92
2022-09-04T10:34:34.697Z,1015.92
2022-09-04T10:35:34.717Z,1015.97
2022-09-04T10:36:34.679Z,1015.96
2022-09-04T10:37:34.689Z,1015.98
2022-09-04T10:38:34.698Z,1016.01
2022-09-04T10:39:34.760Z,1016.04
2022-09-04T10:40:34.651Z,1016.05
2022-09-04T10:41:34.622Z,1016.00
2022-09-04T10:42:34.601Z,1015.96
2022-09-04T10:43:34.626Z,1015.99
2022-09-04T10:44:34.578Z,1016.07
2022-09-04T10:45:34.631Z,1016.02
2022-09-04T10:46:34.540Z,1016.05
2022-09-04T10:47:34.540Z,1016.07
2022-09-04T10:48:34.560Z,1015.97
2022-09-04T10:49:34.560Z,1016.06
2022-09-04T10:50:34.505Z,1016.11
2022-09-04T10:51:34.539Z,1016.13
2022-09-04T10:52:34.472Z,1016.05
2022-09-04T10:53:34.471Z,1016.11
2022-09-04T10:54:34.452Z,1016.15
2022-09-04T10:55:34.440Z,1016.14
2022-09-04T10:56:34.436Z,1016.08
2022-09-04T10:57:34.411Z,1016.05
2022-09-04T10:58:34.393Z,1016.07
2022-09-04T10:59:34.394Z,1016.10
2022-09-04T11:00:34.382Z,1016.15
2022-09-04T11:01:34.446Z,1016.10
2022-09-04T11:02:34.471Z,1016.11
2022-09-04T11:03:34.333Z,1016.05
2022-09-04T11:04:34.313Z,1016.08
2022-09-04T11:05:34.313Z,1016.09
2022-09-04T11:06:34.299Z,1016.11
2022-09-04T11:07:34.284Z,1016.14
2022-09-04T11:08:34.275Z,1016.13
2022-09-04T11:09:34.285Z,1016.15
2022-09-04T11:10:34.247Z,1016.13
2022-09-04T11:11:34.260Z,1016.14
2022-09-04T11:12:34.225Z,1016.17
2022-09-04T11:13:34.207Z,1016.07
2022-09-04T11:14:34.216Z,1016.10
2022-09-04T11:15:34.221Z,1016.10
2022-09-04T11:16:34.200Z,1016.09
2022-09-04T11:17:34.159Z,1016.09
2022-09-04T11:18:34.149Z,1016.13
2022-09-04T11:19:34.138Z,1016.09
2022-09-04T11:20:34.117Z,1016.09
2022-09-04T11:21:34.107Z,1016.10
2022-09-04T11:22:34.105Z,1016.12
2022-09-04T11:23:34.075Z,1016.15
2022-09-04T11:24:34.062Z,1016.13
2022-09-04T11:25:34.057Z,1016.14
2022-09-04T11:26:34.058Z,1016.09
2022-09-04T11:27:34.007Z,1016.11
2022-09-04T11:28:34.035Z,1016.11
2022-09-04T11:29:34.014Z,1016.14
2022-09-04T11:30:33.978Z,1016.15
2022-09-04T11:31:34.115Z,1016.03
2022-09-04T11:32:33.982Z,1016.08
2022-09-04T11:33:33.958Z,1016.09
2022-09-04T11:34:33.939Z,1016.04
2022-09-04T11:35:33.956Z,1016.04
2022-09-04T11:36:33.939Z,1016.02
2022-09-04T11:37:33.981Z,1016.00
2022-09-04T11:38:33.906Z,1016.04
2022-09-04T11:39:33.931Z,1016.01
2022-09-04T11:40:33.850Z,1015.96
2022-09-04T11:41:33.837Z,1016.01
2022-09-04T11:42:33.832Z,1016.01
2022-09-04T11:43:33.831Z,1015.97
2022-09-04T11:44:33.810Z,1015.95
2022-09-04T11:45:33.841Z,1015.99
2022-09-04T11:46:33.773Z,1015.99
2022-09-04T11:47:33.784Z,1015.96
2022-09-04T11:48:33.764Z,1015.96
2022-09-04T11:49:33.753Z,1015.91
2022-09-04T11:50:33.742Z,1015.90
2022-09-04T11:51:33.724Z,1015.92
2022-09-04T11:52:33.723Z,1015.90
2022-09-04T11:53:33.693Z,1015.86
2022-09-04T11:54:33.705Z,1015.84
2022-09-04T11:55:33.740Z,1015.80
2022-09-04T11:56:33.716Z,1015.81
2022-09-04T11:57:33.661Z,1015.78
2022-09-04T11:58:33.704Z,1015.77
2022-09-04T11:59:33.621Z,1015.78
2022-09-04T12:00:33.613Z,1015.76
2022-09-04T12:01:33.584Z,1015.82
2022-09-04T12:02:33.653Z,1015.80
2022-09-04T12:03:33.600Z,1015.86
2022-09-04T12:04:33.546Z,1015.88
2022-09-04T12:05:33.544Z,1015.80